Billy Bishop Toronto City Centre Airport
CYTZ : rendu visible

Aérodrome :











RETROUVEZ-NOUS SUR...

 
LOGIN :

S'inscrire | Disclaimer

   EN    FR    IT 

 









Légende :    VFR   VFR Marginal   IFR   IFR Intensif   IFR Très Intensif
Visi : 
Plafond : 
>= 8 km
>= 3000ft
5 à 8 km
1000 à 3000 ft
1500m à 5 km
500 à 1000 ft
800 à 1500m
200 à 500 ft
< 800m
< 200 ft
Symboles :   Orages  Brouillard  Fortes neiges  Fortes précipitations  Vent > 20 kt






- Altitude de l'aérodrome : 251 ft
- Code IATA : YTZ


CYTZ - Billy Bishop Toronto City Centre

DERNIER METAR :
  • 211600Z AUTO 19010KT 9SM OVC030 06/04 A3009 RMK SLP193

METARs EXPIRÉS :
  • 211509Z AUTO 14004KT 080V160 9SM SCT020 OVC026 05/03 A3011 RMK SLP201
  • 211500Z AUTO 11004KT 070V150 8SM BKN020 OVC026 05/03 A3012 RMK SLP202
  • 211420Z AUTO 06004KT 6SM BR BKN024 OVC030 04/03 A3014 RMK SLP209
  • 211400Z AUTO 08004KT 7SM OVC030 04/03 A3014 RMK SLP211
  • 211300Z AUTO 00000KT 9SM OVC026 03/02 A3015 RMK SLP215

TAF TAF CYTZ
Valide du 21 à 14h jusqu'au 22 à 14h UTC


211338Z 2114/2214 VRB03KT P6SM OVC025
TEMPO 2114/2118 OVC020
BECMG 2114/2116 14008KT
FM211800 16008G18KT P6SM BKN025 BKN100 OVC150
FM212000 18008G18KT P6SM -RA FEW025 SCT040 OVC090
FM220000 20012KT 5SM -RA BR SCT015 OVC030
FM220100 22015KT 4SM -RA BR SCT008 OVC015
FM220400 22015KT 3SM -RA -DZ BR SCT006 OVC010
BECMG 2205/2207 24012G22KT
FM220900 26012G22KT P6SM -SHRA OVC020
FM221200 28015G25KT P6SM BKN030
BECMG 2212/2214 29020G30KT RMK FCST BASED ON AUTO OBS. NXT FCST BY 212000Z



MET'MAP, la Météo Aéronautique d'un coup d'oeil ! - Copyright ORBIFLY Décembre 2007 - Disclaimer

ORBIFLY MET'MAP TEAM :

Programmation & Développement : Alexandra Zaïnal
Conception & Développement : Baudouin d'Aumeries
Co-Programmation & Développement : Marc-Olivier Méhu
Soutien technique & logistique : Manuel Goepfert

Contact : metmap@orbifly.com




SOURCES & CREDITS :

   NOAA       Earth
Advisory